Tk Rotterdam — A8RG8 — position and weather

sailwx.info

Track history (hours):
 
Tides and Currents Weather Stations Pressure Air Temp Water Temp Dewpoint Dewpoint Depression Visibility Wind Speed Wind Dir Waves Ship Positions

Tk Rotterdam

Last reported at 2017-Jan-21 15:31 UTC. Time now 2017-Jan-22 06:04 UTC.
Position N 46°37' E 031°02'.

Length 130 m; draft 5.2 m.

Type: Cargo ship. MMSI: 636014098.

Date/timePositionNaut miles runAvg speedWind from/ knotsBaromVisibWave heightAir tempDewpointWater temp
2017-Jan-21 15:31N 46°37' E 031°02'0 0.0
2017-Jan-21 13:20N 46°37' E 031°02'0 0.0
2017-Jan-21 10:19N 46°37' E 031°02'0 0.0
2017-Jan-21 08:29N 46°37' E 031°02'2 1.6
2017-Jan-21 07:33N 46°36' E 031°01'2 1.7
2017-Jan-21 06:33N 46°34' E 031°02'1 0.9
2017-Jan-21 05:33N 46°34' E 031°01'8 7.8
2017-Jan-21 04:33N 46°27' E 030°57'9 9.3
2017-Jan-21 03:33N 46°18' E 030°57'10 9.3
2017-Jan-21 02:31N 46°10' E 031°07'  
Track history (hours):
 
Tides and Currents Weather Stations Pressure Air Temp Water Temp Dewpoint Dewpoint Depression Visibility Wind Speed Wind Dir Waves Ship Positions

Tk Rotterdam

Last reported at 2017-Jan-21 15:31 UTC. Time now 2017-Jan-22 06:04 UTC.
Position N 46°37' E 031°02'.

Length 130 m; draft 5.2 m.

Type: Cargo ship. MMSI: 636014098.

Date/timePositionNaut miles runAvg speedWind from/ knotsBaromVisibWave heightAir tempDewpointWater temp
2017-Jan-21 15:31N 46°37' E 031°02'0 0.0
2017-Jan-21 13:20N 46°37' E 031°02'0 0.0
2017-Jan-21 10:19N 46°37' E 031°02'0 0.0
2017-Jan-21 08:29N 46°37' E 031°02'2 1.6
2017-Jan-21 07:33N 46°36' E 031°01'2 1.7
2017-Jan-21 06:33N 46°34' E 031°02'1 0.9
2017-Jan-21 05:33N 46°34' E 031°01'8 7.8
2017-Jan-21 04:33N 46°27' E 030°57'9 9.3
2017-Jan-21 03:33N 46°18' E 030°57'10 9.3
2017-Jan-21 02:31N 46°10' E 031°07'  

Dump ship's entire track history